createdAt,value
2023-02-12T00:01:17.660Z,41.00
2023-02-12T00:03:46.267Z,41.50
2023-02-12T00:06:16.048Z,40.90
2023-02-12T00:08:44.303Z,41.10
2023-02-12T00:11:14.248Z,40.60
2023-02-12T00:13:43.822Z,40.60
2023-02-12T00:16:13.316Z,40.70
2023-02-12T00:18:41.448Z,41.30
2023-02-12T00:21:09.857Z,40.80
2023-02-12T00:23:38.346Z,41.30
2023-02-12T00:26:06.837Z,42.10
2023-02-12T00:28:35.113Z,42.20
2023-02-12T00:31:07.788Z,41.70
2023-02-12T00:33:35.976Z,41.30
2023-02-12T00:36:04.597Z,41.40
2023-02-12T00:38:32.831Z,41.50
2023-02-12T00:41:00.844Z,41.50
2023-02-12T00:43:29.878Z,41.30
2023-02-12T00:45:58.501Z,41.30
2023-02-12T00:48:29.649Z,41.60
2023-02-12T00:50:58.040Z,42.10
2023-02-12T00:53:26.042Z,42.30
2023-02-12T00:55:54.555Z,42.00
2023-02-12T00:58:22.997Z,42.30
2023-02-12T01:00:50.968Z,42.80
2023-02-12T01:03:19.061Z,42.80
2023-02-12T01:05:48.594Z,42.60
2023-02-12T01:08:17.565Z,42.10
2023-02-12T01:10:46.468Z,42.40
2023-02-12T01:13:15.138Z,43.30
2023-02-12T01:15:43.334Z,42.90
2023-02-12T01:18:11.508Z,42.70
2023-02-12T01:20:40.986Z,42.20
2023-02-12T01:23:10.430Z,41.90
2023-02-12T01:25:39.273Z,41.60
2023-02-12T01:28:07.410Z,41.40
2023-02-12T01:30:35.646Z,41.90
2023-02-12T01:33:03.884Z,41.70
2023-02-12T01:35:32.006Z,41.80
2023-02-12T01:38:00.148Z,41.90
2023-02-12T01:40:29.815Z,41.80
2023-02-12T01:43:01.244Z,41.70
2023-02-12T01:45:56.512Z,42.10
2023-02-12T01:48:27.104Z,41.90
2023-02-12T01:50:55.473Z,41.10
2023-02-12T01:53:24.915Z,41.10
2023-02-12T01:55:57.521Z,41.30
2023-02-12T01:58:27.623Z,42.30
2023-02-12T02:00:55.678Z,42.50
2023-02-12T02:03:24.938Z,42.00
2023-02-12T02:05:56.845Z,41.70
2023-02-12T02:08:25.356Z,41.30
2023-02-12T02:10:55.108Z,41.40
2023-02-12T02:13:40.867Z,42.20
2023-02-12T02:16:14.756Z,42.20
2023-02-12T02:18:48.291Z,41.60
2023-02-12T02:21:34.280Z,41.80
2023-02-12T02:24:20.133Z,42.40
2023-02-12T02:27:12.592Z,42.80
2023-02-12T02:30:15.079Z,44.40
2023-02-12T02:32:48.725Z,43.00
2023-02-12T02:35:19.751Z,42.80
2023-02-12T02:37:50.388Z,42.70
2023-02-12T02:40:19.511Z,42.70
2023-02-12T02:42:50.701Z,43.40
2023-02-12T02:45:22.347Z,44.20
2023-02-12T02:47:54.173Z,44.30
2023-02-12T02:50:24.103Z,44.40
2023-02-12T02:52:54.506Z,44.40
2023-02-12T02:55:25.088Z,44.30
2023-02-12T02:57:56.125Z,44.20
2023-02-12T03:00:27.087Z,43.90
2023-02-12T03:02:59.336Z,43.60
2023-02-12T03:05:30.138Z,44.20
2023-02-12T03:08:00.213Z,44.50
2023-02-12T03:10:30.371Z,43.90
2023-02-12T03:13:00.797Z,43.10
2023-02-12T03:15:31.906Z,43.30
2023-02-12T03:18:02.820Z,44.40
2023-02-12T03:20:36.782Z,44.30
2023-02-12T03:23:08.115Z,44.30
2023-02-12T03:25:51.040Z,44.40
2023-02-12T03:28:20.330Z,44.00
2023-02-12T03:30:52.472Z,44.30
2023-02-12T03:33:25.711Z,43.70
2023-02-12T03:35:57.508Z,43.40
2023-02-12T03:38:32.028Z,44.30
2023-02-12T03:41:11.108Z,44.30
2023-02-12T03:43:44.174Z,44.30
2023-02-12T03:46:16.449Z,43.30
2023-02-12T03:48:47.337Z,43.40
2023-02-12T03:51:19.473Z,43.60
2023-02-12T03:53:47.594Z,44.30
2023-02-12T03:56:17.989Z,44.30
2023-02-12T03:58:46.572Z,44.00
2023-02-12T04:01:14.826Z,43.90
2023-02-12T04:03:42.870Z,43.70
2023-02-12T04:06:21.947Z,43.70
2023-02-12T04:08:50.201Z,43.60
2023-02-12T04:11:24.045Z,43.40
2023-02-12T04:13:57.255Z,43.90
2023-02-12T04:16:27.602Z,43.70
2023-02-12T04:18:56.237Z,43.30
2023-02-12T04:21:32.696Z,43.40
2023-02-12T04:24:04.019Z,43.20
2023-02-12T04:26:37.304Z,43.00
2023-02-12T04:29:12.999Z,43.20
2023-02-12T04:31:46.006Z,43.00
2023-02-12T04:34:15.532Z,43.10
2023-02-12T04:36:47.046Z,43.50
2023-02-12T04:39:18.006Z,43.60
2023-02-12T04:41:45.975Z,43.40
2023-02-12T04:44:15.076Z,43.50
2023-02-12T04:46:43.062Z,43.60
2023-02-12T04:49:14.648Z,43.80
2023-02-12T04:51:42.972Z,44.20
2023-02-12T04:54:12.325Z,44.20
2023-02-12T04:56:40.313Z,44.20
2023-02-12T04:59:09.343Z,44.20
2023-02-12T05:01:38.159Z,44.00
2023-02-12T05:04:06.552Z,44.20
2023-02-12T05:06:36.138Z,44.30
2023-02-12T05:09:04.779Z,44.80
2023-02-12T05:11:34.538Z,44.90
2023-02-12T05:14:02.466Z,45.20
2023-02-12T05:16:30.544Z,45.10
2023-02-12T05:18:58.491Z,45.90
2023-02-12T05:21:26.428Z,46.00
2023-02-12T05:23:54.399Z,46.10
2023-02-12T05:26:23.106Z,45.70
2023-02-12T05:28:52.382Z,45.70
2023-02-12T05:31:22.175Z,46.10
2023-02-12T05:33:50.665Z,45.90
2023-02-12T05:36:20.562Z,46.60
2023-02-12T05:38:49.063Z,46.40
2023-02-12T05:41:17.878Z,46.40
2023-02-12T05:43:49.150Z,46.50
2023-02-12T05:46:19.534Z,46.60
2023-02-12T05:48:48.075Z,46.70
2023-02-12T05:51:16.899Z,47.10
2023-02-12T05:53:44.880Z,46.90
2023-02-12T05:56:13.937Z,47.00
2023-02-12T05:58:42.877Z,47.10
2023-02-12T06:01:11.898Z,47.00
2023-02-12T06:03:41.316Z,46.90
2023-02-12T06:06:09.660Z,46.90
2023-02-12T06:08:38.029Z,46.50
2023-02-12T06:11:07.160Z,45.80
2023-02-12T06:13:35.572Z,45.20
2023-02-12T06:16:03.592Z,44.80
2023-02-12T06:18:31.904Z,44.30
2023-02-12T06:21:01.207Z,44.60
2023-02-12T06:23:29.288Z,45.00
2023-02-12T06:25:58.104Z,45.30
2023-02-12T06:28:26.863Z,45.30
2023-02-12T06:30:54.877Z,44.90
2023-02-12T06:33:23.237Z,45.00
2023-02-12T06:35:51.322Z,44.90
2023-02-12T06:38:20.790Z,45.00
2023-02-12T06:40:48.801Z,45.10
2023-02-12T06:43:16.817Z,44.90
2023-02-12T06:45:44.751Z,44.80
2023-02-12T06:48:12.761Z,44.80
2023-02-12T06:50:40.753Z,44.80
2023-02-12T06:53:08.833Z,44.90
2023-02-12T06:55:38.254Z,44.80
2023-02-12T06:58:06.256Z,44.90
2023-02-12T07:00:34.323Z,45.30
2023-02-12T07:03:02.626Z,45.30
2023-02-12T07:05:30.741Z,45.50
2023-02-12T07:07:59.942Z,45.30
2023-02-12T07:10:28.012Z,45.70
2023-02-12T07:12:57.339Z,45.70
2023-02-12T07:15:25.382Z,45.10
2023-02-12T07:17:53.365Z,44.60
2023-02-12T07:20:21.327Z,45.10
2023-02-12T07:22:49.496Z,45.50
2023-02-12T07:25:17.491Z,45.80
2023-02-12T07:27:45.610Z,45.90
2023-02-12T07:30:15.781Z,45.70
2023-02-12T07:32:43.751Z,45.60
2023-02-12T07:35:11.738Z,45.80
2023-02-12T07:37:39.770Z,45.70
2023-02-12T07:40:08.850Z,46.00
2023-02-12T07:42:36.926Z,46.30
2023-02-12T07:45:07.696Z,45.80
2023-02-12T07:47:38.604Z,45.40
2023-02-12T07:50:08.260Z,45.20
2023-02-12T07:52:36.350Z,45.10
2023-02-12T07:55:04.312Z,45.20
2023-02-12T07:57:32.428Z,44.50
2023-02-12T08:00:00.417Z,44.50
2023-02-12T08:02:28.523Z,44.50
2023-02-12T08:04:58.573Z,44.60
2023-02-12T08:07:26.896Z,44.60
2023-02-12T08:09:54.877Z,44.70
2023-02-12T08:12:23.689Z,44.80
2023-02-12T08:14:51.882Z,44.40
2023-02-12T08:17:19.895Z,44.80
2023-02-12T08:19:48.012Z,44.90
2023-02-12T08:22:17.357Z,44.90
2023-02-12T08:24:45.428Z,44.80
2023-02-12T08:27:13.415Z,44.80
2023-02-12T08:29:41.391Z,44.80
2023-02-12T08:32:14.011Z,45.30
2023-02-12T08:34:42.584Z,45.80
2023-02-12T08:37:10.574Z,46.80
2023-02-12T08:39:39.993Z,46.90
2023-02-12T08:42:08.069Z,46.60
2023-02-12T08:44:36.786Z,45.20
2023-02-12T08:47:06.752Z,45.30
2023-02-12T08:49:34.723Z,44.20
2023-02-12T08:52:03.178Z,43.80
2023-02-12T08:54:31.809Z,43.10
2023-02-12T08:57:02.218Z,41.10
2023-02-12T08:59:30.526Z,41.00
2023-02-12T09:01:58.648Z,41.20
2023-02-12T09:04:27.989Z,41.10
2023-02-12T09:06:56.286Z,41.10
2023-02-12T09:09:24.574Z,40.90
2023-02-12T09:11:52.576Z,41.20
2023-02-12T09:14:23.847Z,40.30
2023-02-12T09:16:53.353Z,41.10
2023-02-12T09:19:21.555Z,40.80
2023-02-12T09:21:53.938Z,40.60
2023-02-12T09:24:23.189Z,40.30
2023-02-12T09:26:51.307Z,39.90
2023-02-12T09:29:19.350Z,39.90
2023-02-12T09:31:49.028Z,39.90
2023-02-12T09:34:17.176Z,40.20
2023-02-12T09:36:45.145Z,40.80
2023-02-12T09:39:13.205Z,40.60
2023-02-12T09:42:08.576Z,40.60
2023-02-12T09:44:38.794Z,40.40
2023-02-12T09:47:12.320Z,40.10
2023-02-12T09:49:51.098Z,40.10
2023-02-12T09:52:20.170Z,41.60
2023-02-12T09:54:49.049Z,40.70
2023-02-12T09:57:20.093Z,40.50
2023-02-12T09:59:49.920Z,40.40
2023-02-12T10:02:20.310Z,40.50
2023-02-12T10:05:00.775Z,40.20
2023-02-12T10:07:46.240Z,40.40
2023-02-12T10:10:26.577Z,40.40
2023-02-12T10:12:56.589Z,41.20
2023-02-12T10:15:33.005Z,41.70
2023-02-12T10:18:10.170Z,41.20
2023-02-12T10:20:46.577Z,41.30
2023-02-12T10:23:25.255Z,41.10
2023-02-12T10:25:54.866Z,40.70
2023-02-12T10:28:26.288Z,40.60
2023-02-12T10:30:55.674Z,40.70
2023-02-12T10:33:28.054Z,40.30
2023-02-12T10:35:58.106Z,40.10
2023-02-12T10:38:29.909Z,41.20
2023-02-12T10:41:01.971Z,40.80
2023-02-12T10:43:30.235Z,40.60
2023-02-12T10:45:59.009Z,40.80
2023-02-12T10:48:32.587Z,42.10
2023-02-12T10:51:09.813Z,41.30
2023-02-12T10:53:38.709Z,40.90
2023-02-12T10:56:18.301Z,40.80
2023-02-12T10:58:54.348Z,41.30
2023-02-12T11:01:25.985Z,41.00
2023-02-12T11:03:55.861Z,40.80
2023-02-12T11:06:25.620Z,41.40
2023-02-12T11:08:53.958Z,40.90
2023-02-12T11:11:26.133Z,40.80
2023-02-12T11:13:56.061Z,41.30
2023-02-12T11:16:31.336Z,40.50
2023-02-12T11:19:02.328Z,40.40
2023-02-12T11:21:30.884Z,40.20
2023-02-12T11:24:19.545Z,40.10
2023-02-12T11:26:47.614Z,40.10
2023-02-12T11:29:19.977Z,40.20
2023-02-12T11:32:01.289Z,40.70
2023-02-12T11:34:30.919Z,40.40
2023-02-12T11:36:59.470Z,39.90
2023-02-12T11:39:29.314Z,41.70
2023-02-12T11:41:58.232Z,42.20
2023-02-12T11:44:27.744Z,42.20
2023-02-12T11:46:57.480Z,42.40
2023-02-12T11:49:26.854Z,41.60
2023-02-12T11:51:57.668Z,41.80
2023-02-12T11:54:26.790Z,41.40
2023-02-12T11:56:55.801Z,40.80
2023-02-12T11:59:35.670Z,41.10
2023-02-12T12:02:07.438Z,41.60
2023-02-12T12:04:37.201Z,41.20
2023-02-12T12:07:11.203Z,41.10
2023-02-12T12:09:42.578Z,41.30
2023-02-12T12:12:13.694Z,42.10
2023-02-12T12:14:57.882Z,41.90
2023-02-12T12:17:46.057Z,42.80
2023-02-12T12:20:16.625Z,42.90
2023-02-12T12:22:51.868Z,43.00
2023-02-12T12:25:23.357Z,42.60
2023-02-12T12:28:08.224Z,42.60
2023-02-12T12:30:41.210Z,42.50
2023-02-12T12:33:14.896Z,41.90
2023-02-12T12:35:49.937Z,42.10
2023-02-12T12:38:25.727Z,42.60
2023-02-12T12:40:58.774Z,42.60
2023-02-12T12:43:30.452Z,42.90
2023-02-12T12:46:20.206Z,41.50
2023-02-12T12:49:07.349Z,42.00
2023-02-12T12:51:42.184Z,42.30
2023-02-12T12:54:16.471Z,41.60
2023-02-12T12:56:54.164Z,41.60
2023-02-12T12:59:31.968Z,42.30
2023-02-12T13:02:09.543Z,42.30
2023-02-12T13:04:50.251Z,41.10
2023-02-12T13:07:20.965Z,39.50
2023-02-12T13:09:57.118Z,38.40
2023-02-12T13:12:50.117Z,38.90
2023-02-12T13:15:27.661Z,38.30
2023-02-12T13:17:58.297Z,37.60
2023-02-12T13:20:31.807Z,37.20
2023-02-12T13:23:01.252Z,37.70
2023-02-12T13:25:33.606Z,35.80
2023-02-12T13:28:03.465Z,36.10
2023-02-12T13:30:33.262Z,37.00
2023-02-12T13:33:07.979Z,35.90
2023-02-12T13:35:38.191Z,36.00
2023-02-12T13:38:08.687Z,35.30
2023-02-12T13:40:38.329Z,34.60
2023-02-12T13:43:08.586Z,34.40
2023-02-12T13:45:41.691Z,34.30
2023-02-12T13:48:21.830Z,34.00
2023-02-12T13:50:54.833Z,35.20
2023-02-12T13:53:28.877Z,34.30
2023-02-12T13:56:05.456Z,34.20
2023-02-12T13:58:40.448Z,34.30
2023-02-12T14:01:10.938Z,34.00
2023-02-12T14:03:39.540Z,33.80
2023-02-12T14:06:15.745Z,33.70
2023-02-12T14:08:44.950Z,33.80
2023-02-12T14:11:16.186Z,33.10
2023-02-12T14:13:49.413Z,33.90
2023-02-12T14:16:35.960Z,33.60
2023-02-12T14:19:22.729Z,33.10
2023-02-12T14:21:50.756Z,32.80
2023-02-12T14:24:39.856Z,33.40
2023-02-12T14:27:16.650Z,32.80
2023-02-12T14:30:00.816Z,33.50
2023-02-12T14:32:47.442Z,33.40
2023-02-12T14:35:35.019Z,33.40
2023-02-12T14:38:04.004Z,33.30
2023-02-12T14:40:40.519Z,32.40
2023-02-12T14:43:27.443Z,33.00
2023-02-12T14:45:57.853Z,31.60
2023-02-12T14:48:44.087Z,31.70
2023-02-12T14:51:15.853Z,31.50
2023-02-12T14:53:45.290Z,32.20
2023-02-12T14:56:13.713Z,32.10
2023-02-12T14:58:41.845Z,32.50
2023-02-12T15:01:11.681Z,31.40
2023-02-12T15:03:43.150Z,31.20
2023-02-12T15:06:14.456Z,31.20
2023-02-12T15:08:45.858Z,31.30
2023-02-12T15:11:17.974Z,30.60
2023-02-12T15:13:53.836Z,31.60
2023-02-12T15:16:28.391Z,32.30
2023-02-12T15:18:59.261Z,33.30
2023-02-12T15:21:28.572Z,33.40
2023-02-12T15:24:02.584Z,33.60
2023-02-12T15:26:31.718Z,33.80
2023-02-12T15:29:00.159Z,32.70
2023-02-12T15:31:31.093Z,32.70
2023-02-12T15:34:00.480Z,32.90
2023-02-12T15:36:29.464Z,33.30
2023-02-12T15:38:58.899Z,33.20
2023-02-12T15:41:29.241Z,32.90
2023-02-12T15:43:57.826Z,33.00
2023-02-12T15:46:26.529Z,32.60
2023-02-12T15:48:56.359Z,33.10
2023-02-12T15:51:28.876Z,32.40
2023-02-12T15:53:57.955Z,32.40
2023-02-12T15:56:26.843Z,32.20
2023-02-12T15:58:55.765Z,32.40
2023-02-12T16:01:25.378Z,32.80
2023-02-12T16:03:54.470Z,32.40
2023-02-12T16:06:24.988Z,32.40
2023-02-12T16:08:55.957Z,32.20
2023-02-12T16:11:24.231Z,32.60
2023-02-12T16:13:53.717Z,32.80
2023-02-12T16:16:24.554Z,33.10
2023-02-12T16:19:17.668Z,33.50
2023-02-12T16:21:47.454Z,33.80
2023-02-12T16:24:26.338Z,33.70
2023-02-12T16:26:54.885Z,33.60
2023-02-12T16:29:23.091Z,33.80
2023-02-12T16:31:55.574Z,33.90
2023-02-12T16:34:31.226Z,33.60
2023-02-12T16:37:00.878Z,33.50
2023-02-12T16:40:00.910Z,33.80
2023-02-12T16:42:29.601Z,33.90
2023-02-12T16:44:57.581Z,32.70
2023-02-12T16:47:26.234Z,32.20
2023-02-12T16:49:55.882Z,32.60
2023-02-12T16:52:35.848Z,33.30
2023-02-12T16:55:03.966Z,34.00
2023-02-12T16:57:31.955Z,33.90
2023-02-12T16:59:59.998Z,34.20
2023-02-12T17:02:28.610Z,34.90
2023-02-12T17:05:00.867Z,34.80
2023-02-12T17:07:31.072Z,34.80
2023-02-12T17:10:00.767Z,34.70
2023-02-12T17:12:29.126Z,34.70
2023-02-12T17:14:57.200Z,34.60
2023-02-12T17:17:25.247Z,34.50
2023-02-12T17:19:53.742Z,34.50
2023-02-12T17:22:23.743Z,34.60
2023-02-12T17:24:53.298Z,34.00
2023-02-12T17:27:23.094Z,33.80
2023-02-12T17:29:52.123Z,34.00
2023-02-12T17:32:20.467Z,33.20
2023-02-12T17:34:49.416Z,32.40
2023-02-12T17:37:17.541Z,33.70
2023-02-12T17:39:45.885Z,34.20
2023-02-12T17:42:13.924Z,33.90
2023-02-12T17:44:43.509Z,34.60
2023-02-12T17:47:11.582Z,35.20
2023-02-12T17:49:40.407Z,34.80
2023-02-12T17:52:08.474Z,35.90
2023-02-12T17:54:36.477Z,36.30
2023-02-12T17:57:04.545Z,36.10
2023-02-12T17:59:32.656Z,36.10
2023-02-12T18:02:02.831Z,33.20
2023-02-12T18:04:33.898Z,33.30
2023-02-12T18:07:02.213Z,33.90
2023-02-12T18:09:30.863Z,34.70
2023-02-12T18:11:59.150Z,36.10
2023-02-12T18:14:27.446Z,35.70
2023-02-12T18:16:55.729Z,36.10
2023-02-12T18:19:26.060Z,36.30
2023-02-12T18:21:54.340Z,36.70
2023-02-12T18:24:23.213Z,37.50
2023-02-12T18:26:51.700Z,37.40
2023-02-12T18:29:19.865Z,37.70
2023-02-12T18:31:48.225Z,37.40
2023-02-12T18:34:16.910Z,38.40
2023-02-12T18:36:46.326Z,38.50
2023-02-12T18:39:14.475Z,38.70
2023-02-12T18:41:42.551Z,38.70
2023-02-12T18:44:10.772Z,38.70
2023-02-12T18:46:39.160Z,38.00
2023-02-12T18:49:07.248Z,33.90
2023-02-12T18:51:37.285Z,34.00
2023-02-12T18:54:07.860Z,35.50
2023-02-12T18:56:37.256Z,38.40
2023-02-12T18:59:05.959Z,38.70
2023-02-12T19:01:34.897Z,39.20
2023-02-12T19:04:04.596Z,40.00
2023-02-12T19:06:33.268Z,40.20
2023-02-12T19:09:02.225Z,40.10
2023-02-12T19:11:31.915Z,39.70
2023-02-12T19:14:00.340Z,39.70
2023-02-12T19:16:28.933Z,40.20
2023-02-12T19:18:58.520Z,39.90
2023-02-12T19:21:26.867Z,39.20
2023-02-12T19:23:55.186Z,39.30
2023-02-12T19:26:23.828Z,39.10
2023-02-12T19:28:53.174Z,36.20
2023-02-12T19:31:22.509Z,35.30
2023-02-12T19:33:51.356Z,36.80
2023-02-12T19:36:20.436Z,37.40
2023-02-12T19:38:50.124Z,39.00
2023-02-12T19:41:19.071Z,39.90
2023-02-12T19:43:47.356Z,40.60
2023-02-12T19:46:17.925Z,40.80
2023-02-12T19:48:46.467Z,40.60
2023-02-12T19:51:15.355Z,40.60
2023-02-12T19:53:43.406Z,39.30
2023-02-12T19:56:11.762Z,38.80
2023-02-12T19:58:40.077Z,40.30
2023-02-12T20:01:08.984Z,39.10
2023-02-12T20:03:39.148Z,39.70
2023-02-12T20:06:09.662Z,38.10
2023-02-12T20:08:38.254Z,38.00
2023-02-12T20:11:07.228Z,39.00
2023-02-12T20:13:35.350Z,40.30
2023-02-12T20:16:04.198Z,41.70
2023-02-12T20:18:32.433Z,41.90
2023-02-12T20:21:02.238Z,42.80
2023-02-12T20:23:30.518Z,42.40
2023-02-12T20:25:58.733Z,43.50
2023-02-12T20:28:26.993Z,44.30
2023-02-12T20:30:55.505Z,44.30
2023-02-12T20:33:23.776Z,42.40
2023-02-12T20:35:55.956Z,43.00
2023-02-12T20:38:25.514Z,42.00
2023-02-12T20:40:53.751Z,42.40
2023-02-12T20:43:22.028Z,43.10
2023-02-12T20:45:50.254Z,43.70
2023-02-12T20:48:21.112Z,44.20
2023-02-12T20:50:49.394Z,43.30
2023-02-12T20:53:17.499Z,42.80
2023-02-12T20:55:46.923Z,41.30
2023-02-12T20:58:14.874Z,41.30
2023-02-12T21:00:43.245Z,41.90
2023-02-12T21:03:11.248Z,41.20
2023-02-12T21:05:39.302Z,41.00
2023-02-12T21:08:07.523Z,41.50
2023-02-12T21:10:35.646Z,43.20
2023-02-12T21:13:05.238Z,44.50
2023-02-12T21:15:33.277Z,44.50
2023-02-12T21:18:01.493Z,44.50
2023-02-12T21:20:29.587Z,44.50
2023-02-12T21:22:57.865Z,44.40
2023-02-12T21:25:26.014Z,45.50
2023-02-12T21:27:54.018Z,45.10
2023-02-12T21:30:23.963Z,45.50
2023-02-12T21:32:53.665Z,45.30
2023-02-12T21:35:21.794Z,44.30
2023-02-12T21:37:49.820Z,45.60
2023-02-12T21:40:18.080Z,45.50
2023-02-12T21:42:46.198Z,46.00
2023-02-12T21:45:14.281Z,45.50
2023-02-12T21:47:43.694Z,46.00
2023-02-12T21:50:14.152Z,47.10
2023-02-12T21:52:42.310Z,47.70
2023-02-12T21:55:10.712Z,48.20
2023-02-12T21:57:39.001Z,48.20
2023-02-12T22:00:07.895Z,48.20
2023-02-12T22:02:40.601Z,48.60
2023-02-12T22:05:10.335Z,48.70
2023-02-12T22:07:38.413Z,48.40
2023-02-12T22:10:08.239Z,48.10
2023-02-12T22:12:36.425Z,48.60
2023-02-12T22:15:04.469Z,49.00
2023-02-12T22:17:33.362Z,48.80
2023-02-12T22:20:02.379Z,48.90
2023-02-12T22:22:31.939Z,48.80
2023-02-12T22:24:59.910Z,49.40
2023-02-12T22:27:27.987Z,49.40
2023-02-12T22:29:56.605Z,50.00
2023-02-12T22:32:25.054Z,49.90
2023-02-12T22:34:53.437Z,49.90
2023-02-12T22:37:21.808Z,49.90
2023-02-12T22:39:51.269Z,50.00
2023-02-12T22:42:19.297Z,50.00
2023-02-12T22:44:47.242Z,50.10
2023-02-12T22:47:15.392Z,49.40
2023-02-12T22:49:43.440Z,49.50
2023-02-12T22:52:11.661Z,49.50
2023-02-12T22:54:39.976Z,49.90
2023-02-12T22:57:09.513Z,49.80
2023-02-12T22:59:37.600Z,49.40
2023-02-12T23:02:05.653Z,49.50
2023-02-12T23:04:33.649Z,49.30
2023-02-12T23:07:01.703Z,49.70
2023-02-12T23:09:29.913Z,49.70
2023-02-12T23:11:57.986Z,49.40
2023-02-12T23:14:27.413Z,49.30
2023-02-12T23:16:56.471Z,49.10
2023-02-12T23:19:24.624Z,49.70
2023-02-12T23:21:52.730Z,49.70
2023-02-12T23:24:20.791Z,49.60
2023-02-12T23:26:48.875Z,49.70
2023-02-12T23:29:17.046Z,49.30
2023-02-12T23:31:46.478Z,49.60
2023-02-12T23:34:14.627Z,49.70
2023-02-12T23:36:42.813Z,49.90
2023-02-12T23:39:12.441Z,49.70
2023-02-12T23:41:40.423Z,49.70
2023-02-12T23:44:08.557Z,49.90
2023-02-12T23:46:36.597Z,50.30
2023-02-12T23:49:06.135Z,50.30
2023-02-12T23:51:34.640Z,50.20
2023-02-12T23:54:02.912Z,50.60
2023-02-12T23:56:30.970Z,50.70
2023-02-12T23:58:59.035Z,51.20
